Time,TemperatureF,DewpointF,PressureIn,WindDirection,WindDirectionDegrees,WindSpeedMPH,WindSpeedGustMPH,Humidity,HourlyPrecipIn,Conditions,Clouds,dailyrainin,SoftwareType,DateUTC
2013-02-25 00:02:00,50.0,49.5,30.00,SE,127,0.0,0.0,98,0.00,,---,0.00,VWS V14.01,2013-02-25 05:02:00,
2013-02-25 00:07:00,50.1,49.6,29.99,SE,127,0.0,0.0,98,0.00,,---,0.00,VWS V14.01,2013-02-25 05:07:00,
2013-02-25 00:12:00,50.0,49.5,29.98,SE,127,0.0,0.0,98,0.00,,---,0.00,VWS V14.01,2013-02-25 05:12:00,
2013-02-25 00:17:00,49.9,49.4,29.98,SE,127,0.0,0.0,98,0.00,,---,0.00,VWS V14.01,2013-02-25 05:17:00,
2013-02-25 00:22:00,49.8,49.3,29.98,SE,127,0.0,0.0,98,0.00,,---,0.00,VWS V14.01,2013-02-25 05:22:00,
2013-02-25 00:27:00,49.7,49.2,29.98,SE,127,0.0,0.0,98,0.00,,---,0.00,VWS V14.01,2013-02-25 05:27:00,
2013-02-25 00:32:00,49.9,49.4,29.98,SE,127,0.0,0.0,98,0.00,,---,0.00,VWS V14.01,2013-02-25 05:32:00,
2013-02-25 00:37:00,49.9,49.4,29.97,SE,127,0.0,0.0,98,0.00,,---,0.00,VWS V14.01,2013-02-25 05:37:00,
2013-02-25 00:42:00,49.7,49.2,29.97,ENE,61,0.0,0.0,98,0.00,,---,0.00,VWS V14.01,2013-02-25 05:42:00,
2013-02-25 00:52:00,49.3,48.8,29.97,ENE,69,2.0,4.0,98,0.00,,---,0.00,VWS V14.01,2013-02-25 05:52:00,
2013-02-25 00:57:00,49.4,48.9,29.97,NE,40,1.0,2.0,98,0.00,,---,0.00,VWS V14.01,2013-02-25 05:57:00,
2013-02-25 01:02:00,49.4,48.9,29.97,NE,51,1.0,2.0,98,0.00,,---,0.00,VWS V14.01,2013-02-25 06:02:00,
2013-02-25 01:07:00,49.3,48.8,29.97,ENE,72,1.0,1.0,98,0.00,,---,0.00,VWS V14.01,2013-02-25 06:07:00,
2013-02-25 01:12:00,49.2,48.7,29.96,ENE,64,1.0,2.0,98,0.00,,---,0.00,VWS V14.01,2013-02-25 06:12:00,
2013-02-25 01:17:00,49.2,48.7,29.96,ENE,63,0.0,1.0,98,0.00,,---,0.00,VWS V14.01,2013-02-25 06:17:00,
2013-02-25 01:22:00,49.2,48.7,29.96,ENE,64,1.0,1.0,98,0.00,,---,0.00,VWS V14.01,2013-02-25 06:22:00,
2013-02-25 01:32:00,49.6,49.1,29.96,ENE,63,0.0,1.0,98,0.00,,---,0.00,VWS V14.01,2013-02-25 06:32:00,
2013-02-25 01:37:00,49.2,48.7,29.97,NNE,31,0.0,3.0,98,0.00,,---,0.00,VWS V14.01,2013-02-25 06:37:00,
2013-02-25 01:42:00,49.0,48.5,29.97,NNE,29,2.0,3.0,98,0.00,,---,0.00,VWS V14.01,2013-02-25 06:42:00,
2013-02-25 01:52:00,49.5,49.0,29.96,NNE,32,2.0,3.0,98,0.00,,---,0.00,VWS V14.01,2013-02-25 06:52:00,
2013-02-25 01:57:00,50.0,49.7,29.96,NE,39,2.0,3.0,99,0.00,,---,0.00,VWS V14.01,2013-02-25 06:57:00,
2013-02-25 02:02:00,50.2,49.7,29.96,NE,43,2.0,4.0,98,0.00,,---,0.00,VWS V14.01,2013-02-25 07:02:00,
2013-02-25 02:07:00,50.6,50.3,29.96,NNE,30,6.0,6.0,99,0.00,,---,0.00,VWS V14.01,2013-02-25 07:07:00,
2013-02-25 02:12:00,50.9,50.6,29.96,NNE,33,6.0,6.0,99,0.00,,---,0.00,VWS V14.01,2013-02-25 07:12:00,
2013-02-25 02:22:00,50.9,50.4,29.97,NE,44,2.0,4.0,98,0.00,,---,0.00,VWS V14.01,2013-02-25 07:22:00,
2013-02-25 02:27:00,50.8,50.3,29.96,NE,43,4.0,5.0,98,0.00,,---,0.00,VWS V14.01,2013-02-25 07:27:00,
2013-02-25 02:32:00,50.8,50.3,29.97,NE,49,2.0,5.0,98,0.00,,---,0.00,VWS V14.01,2013-02-25 07:32:00,
2013-02-25 02:37:00,50.8,50.3,29.96,NE,46,2.0,4.0,98,0.00,,---,0.00,VWS V14.01,2013-02-25 07:37:00,
2013-02-25 02:42:00,50.7,50.2,29.97,NE,53,2.0,3.0,98,0.00,,---,0.00,VWS V14.01,2013-02-25 07:42:00,
2013-02-25 02:47:00,50.7,50.2,29.96,NE,51,2.0,3.0,98,0.00,,---,0.00,VWS V14.01,2013-02-25 07:47:00,
2013-02-25 02:52:00,50.6,50.1,29.96,ENE,57,0.0,3.0,98,0.00,,---,0.00,VWS V14.01,2013-02-25 07:52:00,
2013-02-25 02:57:00,50.4,49.9,29.96,ENE,58,0.0,1.0,98,0.00,,---,0.00,VWS V14.01,2013-02-25 07:57:00,
2013-02-25 03:07:00,49.9,49.4,29.95,NE,53,2.0,2.0,98,0.00,,---,0.00,VWS V14.01,2013-02-25 08:07:00,
2013-02-25 03:12:00,49.9,49.4,29.95,NE,45,1.0,2.0,98,0.00,,---,0.00,VWS V14.01,2013-02-25 08:12:00,
2013-02-25 03:17:00,49.9,49.4,29.95,ENE,70,2.0,2.0,98,0.00,,---,0.00,VWS V14.01,2013-02-25 08:17:00,
2013-02-25 03:22:00,50.0,49.5,29.95,NE,50,1.0,3.0,98,0.00,,---,0.00,VWS V14.01,2013-02-25 08:22:00,
2013-02-25 03:27:00,50.0,49.5,29.95,ESE,115,1.0,1.0,98,0.00,,---,0.00,VWS V14.01,2013-02-25 08:27:00,
2013-02-25 03:32:00,50.3,49.8,29.96,SE,124,0.0,1.0,98,0.00,,---,0.00,VWS V14.01,2013-02-25 08:32:00,
2013-02-25 03:37:00,50.4,50.1,29.96,SSE,165,0.0,1.0,99,0.00,,---,0.00,VWS V14.01,2013-02-25 08:37:00,
2013-02-25 03:42:00,50.5,50.2,29.95,SSE,165,0.0,0.0,99,0.00,,---,0.00,VWS V14.01,2013-02-25 08:42:00,
2013-02-25 03:47:00,50.3,49.8,29.96,SW,231,0.0,1.0,98,0.00,,---,0.00,VWS V14.01,2013-02-25 08:47:00,
2013-02-25 03:52:00,50.3,49.8,29.95,North,356,0.0,1.0,98,0.00,,---,0.00,VWS V14.01,2013-02-25 08:52:00,
2013-02-25 03:57:00,50.4,49.9,29.95,North,357,0.0,0.0,98,0.00,,---,0.00,VWS V14.01,2013-02-25 08:57:00,
2013-02-25 04:02:00,50.3,49.8,29.96,North,356,1.0,1.0,98,0.00,,---,0.00,VWS V14.01,2013-02-25 09:02:00,
2013-02-25 04:07:00,50.1,49.6,29.96,North,356,0.0,1.0,98,0.00,,---,0.00,VWS V14.01,2013-02-25 09:07:00,
2013-02-25 04:12:00,50.1,49.6,29.96,North,356,0.0,0.0,98,0.00,,---,0.00,VWS V14.01,2013-02-25 09:12:00,
2013-02-25 04:22:00,49.5,49.0,29.96,NNE,15,0.0,1.0,98,0.00,,---,0.00,VWS V14.01,2013-02-25 09:22:00,
2013-02-25 04:27:00,49.3,48.8,29.96,NNE,16,1.0,1.0,98,0.00,,---,0.00,VWS V14.01,2013-02-25 09:27:00,
2013-02-25 04:32:00,49.0,48.5,29.96,NNE,30,0.0,1.0,98,0.00,,---,0.00,VWS V14.01,2013-02-25 09:32:00,
2013-02-25 04:37:00,49.0,48.5,29.96,NNE,30,0.0,1.0,98,0.00,,---,0.00,VWS V14.01,2013-02-25 09:37:00,
2013-02-25 04:42:00,49.1,48.6,29.96,NNE,30,0.0,0.0,98,0.00,,---,0.00,VWS V14.01,2013-02-25 09:42:00,
2013-02-25 04:47:00,49.3,48.8,29.96,NNE,30,0.0,0.0,98,0.00,,---,0.00,VWS V14.01,2013-02-25 09:47:00,
2013-02-25 04:52:00,49.5,49.2,29.97,NE,36,0.0,0.0,99,0.00,,---,0.00,VWS V14.01,2013-02-25 09:52:00,
2013-02-25 04:57:00,49.7,49.4,29.97,NE,36,0.0,1.0,99,0.00,,---,0.00,VWS V14.01,2013-02-25 09:57:00,
2013-02-25 05:02:00,49.8,49.5,29.97,NE,36,0.0,0.0,99,0.00,,---,0.00,VWS V14.01,2013-02-25 10:02:00,
2013-02-25 05:07:00,49.7,49.4,29.97,NE,36,0.0,0.0,99,0.00,,---,0.00,VWS V14.01,2013-02-25 10:07:00,
2013-02-25 05:12:00,49.9,49.6,29.97,NE,35,0.0,0.0,99,0.00,,---,0.00,VWS V14.01,2013-02-25 10:12:00,
2013-02-25 05:17:00,50.1,49.8,29.98,NE,35,0.0,0.0,99,0.00,,---,0.00,VWS V14.01,2013-02-25 10:17:00,
2013-02-25 05:27:00,50.4,50.1,29.98,NE,36,0.0,0.0,99,0.00,,---,0.00,VWS V14.01,2013-02-25 10:27:00,
2013-02-25 05:32:00,50.4,50.1,29.98,NE,51,0.0,0.0,99,0.00,,---,0.00,VWS V14.01,2013-02-25 10:32:00,
2013-02-25 05:37:00,50.5,50.2,29.98,East,88,2.0,2.0,99,0.00,,---,0.00,VWS V14.01,2013-02-25 10:37:00,
2013-02-25 05:42:00,50.9,50.6,29.97,East,95,3.0,4.0,99,0.00,,---,0.00,VWS V14.01,2013-02-25 10:42:00,
2013-02-25 05:47:00,51.7,51.4,29.98,East,93,3.0,3.0,99,0.00,,---,0.00,VWS V14.01,2013-02-25 10:47:00,
2013-02-25 05:52:00,52.3,52.0,29.98,East,98,3.0,3.0,99,0.00,,---,0.00,VWS V14.01,2013-02-25 10:52:00,
2013-02-25 06:02:00,53.0,52.7,29.98,East,87,3.0,5.0,99,0.00,,---,0.00,VWS V14.01,2013-02-25 11:02:00,
2013-02-25 06:07:00,53.3,53.0,29.98,East,91,2.0,4.0,99,0.00,,---,0.00,VWS V14.01,2013-02-25 11:07:00,
2013-02-25 06:12:00,53.5,53.2,29.99,East,93,2.0,3.0,99,0.00,,---,0.00,VWS V14.01,2013-02-25 11:12:00,
2013-02-25 06:17:00,53.7,53.4,29.99,East,88,1.0,3.0,99,0.00,,---,0.00,VWS V14.01,2013-02-25 11:17:00,
2013-02-25 06:27:00,53.6,53.0,30.00,ENE,67,0.0,1.0,98,0.00,,---,0.00,VWS V14.01,2013-02-25 11:27:00,
2013-02-25 06:32:00,53.6,53.0,30.00,ENE,67,0.0,1.0,98,0.00,,---,0.00,VWS V14.01,2013-02-25 11:32:00,
2013-02-25 06:37:00,53.4,52.8,30.00,NE,36,1.0,2.0,98,0.00,,---,0.00,VWS V14.01,2013-02-25 11:37:00,
2013-02-25 06:47:00,53.4,52.8,30.01,NE,36,0.0,1.0,98,0.00,,---,0.00,VWS V14.01,2013-02-25 11:47:00,
2013-02-25 06:57:00,53.4,52.8,30.01,NE,36,0.0,0.0,98,0.00,,---,0.00,VWS V14.01,2013-02-25 11:57:00,
2013-02-25 07:02:00,53.3,52.8,30.01,NE,36,0.0,1.0,98,0.00,,---,0.00,VWS V14.01,2013-02-25 12:02:00,
2013-02-25 07:12:00,53.2,52.7,30.01,NE,53,1.0,1.0,98,0.00,,---,0.00,VWS V14.01,2013-02-25 12:12:00,
2013-02-25 07:17:00,53.2,52.7,30.00,NE,41,3.0,3.0,98,0.00,,---,0.00,VWS V14.01,2013-02-25 12:17:00,
2013-02-25 07:22:00,53.2,52.7,30.00,NE,43,2.0,4.0,98,0.00,,---,0.00,VWS V14.01,2013-02-25 12:22:00,
2013-02-25 07:27:00,53.2,52.7,30.00,NE,39,4.0,5.0,98,0.00,,---,0.00,VWS V14.01,2013-02-25 12:27:00,
2013-02-25 07:37:00,53.2,52.7,30.01,NE,43,9.0,9.0,98,0.00,,---,0.00,VWS V14.01,2013-02-25 12:37:00,
2013-02-25 07:42:00,53.1,52.5,30.00,NNE,30,7.0,11.0,98,0.00,,---,0.00,VWS V14.01,2013-02-25 12:42:00,
2013-02-25 07:47:00,52.9,52.1,30.01,NNE,27,6.0,12.0,97,0.00,,---,0.00,VWS V14.01,2013-02-25 12:47:00,
2013-02-25 07:57:00,52.6,51.8,30.01,NE,46,6.0,12.0,97,0.00,,---,0.00,VWS V14.01,2013-02-25 12:57:00,
2013-02-25 08:02:00,52.5,51.4,30.01,NE,41,7.0,13.0,96,0.00,,---,0.00,VWS V14.01,2013-02-25 13:02:00,
2013-02-25 08:12:00,52.3,50.9,30.01,NE,46,8.0,13.0,95,0.00,,---,0.00,VWS V14.01,2013-02-25 13:12:00,
2013-02-25 08:17:00,52.2,50.5,30.01,NE,46,5.0,10.0,94,0.00,,---,0.00,VWS V14.01,2013-02-25 13:17:00,
2013-02-25 08:22:00,52.2,50.2,30.01,ENE,60,7.0,12.0,93,0.00,,---,0.00,VWS V14.01,2013-02-25 13:22:00,
2013-02-25 08:27:00,52.1,49.8,30.01,NE,50,7.0,12.0,92,0.00,,---,0.00,VWS V14.01,2013-02-25 13:27:00,
2013-02-25 08:37:00,52.0,49.8,30.02,NNE,29,6.0,11.0,92,0.00,,---,0.00,VWS V14.01,2013-02-25 13:37:00,
2013-02-25 08:42:00,51.9,49.7,30.02,ENE,59,5.0,10.0,92,0.00,,---,0.00,VWS V14.01,2013-02-25 13:42:00,
2013-02-25 08:52:00,51.8,49.3,30.03,NE,46,11.0,13.0,91,0.00,,---,0.00,VWS V14.01,2013-02-25 13:52:00,
2013-02-25 08:57:00,51.8,49.0,30.03,NE,43,11.0,12.0,90,0.00,,---,0.00,VWS V14.01,2013-02-25 13:57:00,
2013-02-25 09:07:00,51.8,48.7,30.03,NE,41,8.0,14.0,89,0.00,,---,0.00,VWS V14.01,2013-02-25 14:07:00,
2013-02-25 09:12:00,51.9,48.8,30.03,NE,43,6.0,12.0,89,0.01,,---,0.01,VWS V14.01,2013-02-25 14:12:00,
2013-02-25 09:22:00,51.9,48.8,30.03,NE,47,10.0,14.0,89,0.01,,---,0.01,VWS V14.01,2013-02-25 14:22:00,
2013-02-25 09:27:00,51.9,48.8,30.03,NE,53,10.0,13.0,89,0.01,,---,0.01,VWS V14.01,2013-02-25 14:27:00,
2013-02-25 09:32:00,52.0,48.6,30.04,ENE,58,10.0,13.0,88,0.01,,---,0.01,VWS V14.01,2013-02-25 14:32:00,
2013-02-25 09:42:00,52.2,48.8,30.04,NE,41,8.0,14.0,88,0.01,,---,0.01,VWS V14.01,2013-02-25 14:42:00,
2013-02-25 09:47:00,52.2,48.8,30.04,NNE,28,8.0,15.0,88,0.01,,---,0.01,VWS V14.01,2013-02-25 14:47:00,
2013-02-25 09:52:00,52.2,48.5,30.04,NE,46,7.0,14.0,87,0.01,,---,0.01,VWS V14.01,2013-02-25 14:52:00,
2013-02-25 09:57:00,52.3,48.9,30.04,ENE,61,5.0,13.0,88,0.01,,---,0.01,VWS V14.01,2013-02-25 14:57:00,
2013-02-25 10:02:00,52.3,48.9,30.04,ENE,61,7.0,12.0,88,0.01,,---,0.01,VWS V14.01,2013-02-25 15:02:00,
2013-02-25 10:07:00,52.2,48.8,30.04,East,81,8.0,15.0,88,0.01,,---,0.01,VWS V14.01,2013-02-25 15:07:00,
2013-02-25 10:17:00,51.9,49.1,30.05,NNE,23,7.0,12.0,90,0.00,,---,0.01,VWS V14.01,2013-02-25 15:17:00,
2013-02-25 10:27:00,51.6,49.1,30.04,ENE,58,11.0,13.0,91,0.02,,---,0.03,VWS V14.01,2013-02-25 15:27:00,
2013-02-25 10:32:00,51.5,49.3,30.05,ENE,63,6.0,12.0,92,0.03,,---,0.04,VWS V14.01,2013-02-25 15:32:00,
2013-02-25 10:37:00,51.4,49.2,30.05,ENE,74,8.0,15.0,92,0.04,,---,0.05,VWS V14.01,2013-02-25 15:37:00,
2013-02-25 10:42:00,51.4,49.5,30.05,East,79,7.0,15.0,93,0.04,,---,0.05,VWS V14.01,2013-02-25 15:42:00,
2013-02-25 10:47:00,51.4,49.7,30.05,NE,43,8.0,12.0,94,0.05,,---,0.06,VWS V14.01,2013-02-25 15:47:00,
2013-02-25 10:57:00,51.5,49.8,30.05,ENE,63,7.0,11.0,94,0.07,,---,0.08,VWS V14.01,2013-02-25 15:57:00,
2013-02-25 11:02:00,51.5,49.8,30.05,NE,56,11.0,13.0,94,0.09,,---,0.10,VWS V14.01,2013-02-25 16:02:00,
2013-02-25 11:12:00,51.5,50.1,30.05,NNE,30,9.0,14.0,95,0.11,,---,0.12,VWS V14.01,2013-02-25 16:12:00,
2013-02-25 11:22:00,51.6,50.2,30.06,ENE,60,8.0,12.0,95,0.12,,---,0.13,VWS V14.01,2013-02-25 16:22:00,
2013-02-25 11:32:00,51.4,50.0,30.06,ENE,63,12.0,18.0,95,0.11,,---,0.14,VWS V14.01,2013-02-25 16:32:00,
2013-02-25 11:37:00,51.3,49.9,30.06,NE,53,9.0,15.0,95,0.11,,---,0.15,VWS V14.01,2013-02-25 16:37:00,
2013-02-25 11:42:00,51.3,49.9,30.06,ENE,57,10.0,16.0,95,0.10,,---,0.15,VWS V14.01,2013-02-25 16:42:00,
2013-02-25 11:47:00,51.3,49.9,30.06,ENE,62,12.0,13.0,95,0.11,,---,0.16,VWS V14.01,2013-02-25 16:47:00,
2013-02-25 11:52:00,51.1,49.7,30.06,NE,46,10.0,15.0,95,0.10,,---,0.16,VWS V14.01,2013-02-25 16:52:00,
2013-02-25 11:57:00,51.0,49.6,30.06,NE,41,10.0,17.0,95,0.10,,---,0.17,VWS V14.01,2013-02-25 16:57:00,
2013-02-25 12:02:00,51.0,49.6,30.06,NNE,18,15.0,15.0,95,0.10,,---,0.18,VWS V14.01,2013-02-25 17:02:00,
2013-02-25 12:07:00,50.9,49.8,30.05,ENE,62,12.0,15.0,96,0.08,,---,0.18,VWS V14.01,2013-02-25 17:07:00,
2013-02-25 12:12:00,50.9,49.8,30.05,NE,50,7.0,13.0,96,0.08,,---,0.19,VWS V14.01,2013-02-25 17:12:00,
2013-02-25 12:17:00,50.9,49.8,30.05,NE,41,12.0,14.0,96,0.08,,---,0.20,VWS V14.01,2013-02-25 17:17:00,
2013-02-25 12:22:00,50.7,49.6,30.04,NE,50,10.0,19.0,96,0.08,,---,0.21,VWS V14.01,2013-02-25 17:22:00,
2013-02-25 12:32:00,50.7,49.6,30.04,NE,42,11.0,14.0,96,0.08,,---,0.22,VWS V14.01,2013-02-25 17:32:00,
2013-02-25 12:37:00,50.7,49.6,30.04,ENE,63,6.0,16.0,96,0.08,,---,0.22,VWS V14.01,2013-02-25 17:37:00,
2013-02-25 12:47:00,50.5,49.4,30.03,ENE,69,6.0,12.0,96,0.08,,---,0.23,VWS V14.01,2013-02-25 17:47:00,
2013-02-25 12:52:00,50.5,49.4,30.03,ENE,60,8.0,14.0,96,0.08,,---,0.24,VWS V14.01,2013-02-25 17:52:00,
2013-02-25 12:57:00,50.4,49.3,30.03,NE,53,5.0,11.0,96,0.09,,---,0.25,VWS V14.01,2013-02-25 17:57:00,
2013-02-25 13:02:00,50.1,48.7,30.03,ENE,61,18.0,18.0,95,0.08,,---,0.25,VWS V14.01,2013-02-25 18:02:00,
2013-02-25 13:07:00,49.9,48.5,30.04,ENE,60,12.0,18.0,95,0.08,,---,0.26,VWS V14.01,2013-02-25 18:07:00,
2013-02-25 13:17:00,49.7,48.3,30.04,ENE,63,7.0,14.0,95,0.08,,---,0.27,VWS V14.01,2013-02-25 18:17:00,
2013-02-25 13:22:00,49.8,48.7,30.04,NE,44,9.0,13.0,96,0.08,,---,0.28,VWS V14.01,2013-02-25 18:22:00,
2013-02-25 13:27:00,49.7,48.6,30.03,NE,53,8.0,15.0,96,0.08,,---,0.29,VWS V14.01,2013-02-25 18:27:00,
2013-02-25 13:37:00,49.4,48.0,30.03,ENE,61,12.0,18.0,95,0.08,,---,0.30,VWS V14.01,2013-02-25 18:37:00,
2013-02-25 13:42:00,49.4,48.3,30.02,East,86,9.0,14.0,96,0.09,,---,0.31,VWS V14.01,2013-02-25 18:42:00,
2013-02-25 13:47:00,49.2,48.1,30.03,ENE,63,10.0,17.0,96,0.09,,---,0.32,VWS V14.01,2013-02-25 18:47:00,
2013-02-25 13:52:00,49.1,48.0,30.03,ENE,61,8.0,13.0,96,0.10,,---,0.33,VWS V14.01,2013-02-25 18:52:00,
2013-02-25 13:57:00,48.9,47.8,30.03,NE,53,9.0,17.0,96,0.10,,---,0.34,VWS V14.01,2013-02-25 18:57:00,
2013-02-25 14:02:00,48.8,47.7,30.04,ENE,70,12.0,14.0,96,0.10,,---,0.35,VWS V14.01,2013-02-25 19:02:00,
2013-02-25 14:12:00,48.7,47.6,30.04,NE,49,14.0,14.0,96,0.11,,---,0.37,VWS V14.01,2013-02-25 19:12:00,
2013-02-25 14:17:00,48.5,47.4,30.04,ENE,60,11.0,17.0,96,0.11,,---,0.38,VWS V14.01,2013-02-25 19:17:00,
2013-02-25 14:22:00,48.4,47.3,30.03,NE,39,6.0,15.0,96,0.11,,---,0.38,VWS V14.01,2013-02-25 19:22:00,
2013-02-25 14:27:00,48.3,47.2,30.03,ENE,69,13.0,14.0,96,0.11,,---,0.39,VWS V14.01,2013-02-25 19:27:00,
2013-02-25 14:37:00,48.0,46.9,30.00,ENE,63,11.0,17.0,96,0.10,,---,0.40,VWS V14.01,2013-02-25 19:37:00,
2013-02-25 14:47:00,47.8,46.7,30.00,NE,51,7.0,17.0,96,0.10,,---,0.41,VWS V14.01,2013-02-25 19:47:00,
2013-02-25 14:52:00,47.6,46.5,30.01,ENE,74,9.0,18.0,96,0.10,,---,0.42,VWS V14.01,2013-02-25 19:52:00,
2013-02-25 15:02:00,47.5,46.4,30.00,ENE,69,11.0,21.0,96,0.09,,---,0.43,VWS V14.01,2013-02-25 20:02:00,
2013-02-25 15:07:00,47.4,46.3,29.99,ENE,63,17.0,23.0,96,0.08,,---,0.43,VWS V14.01,2013-02-25 20:07:00,
2013-02-25 15:17:00,47.3,46.2,30.00,ENE,76,8.0,23.0,96,0.06,,---,0.43,VWS V14.01,2013-02-25 20:17:00,
2013-02-25 15:22:00,47.3,46.2,30.00,NE,56,9.0,18.0,96,0.05,,---,0.43,VWS V14.01,2013-02-25 20:22:00,
2013-02-25 15:27:00,47.3,46.2,30.00,ENE,61,10.0,16.0,96,0.06,,---,0.44,VWS V14.01,2013-02-25 20:27:00,
2013-02-25 15:32:00,47.4,46.3,30.00,NE,49,10.0,18.0,96,0.05,,---,0.44,VWS V14.01,2013-02-25 20:32:00,
2013-02-25 15:37:00,47.3,46.2,30.00,NE,36,12.0,16.0,96,0.05,,---,0.44,VWS V14.01,2013-02-25 20:37:00,
2013-02-25 15:47:00,47.2,46.1,30.00,ENE,61,11.0,19.0,96,0.04,,---,0.45,VWS V14.01,2013-02-25 20:47:00,
2013-02-25 15:52:00,47.2,46.1,30.00,ENE,77,19.0,19.0,96,0.05,,---,0.46,VWS V14.01,2013-02-25 20:52:00,
2013-02-25 15:57:00,47.2,46.1,30.00,NE,39,12.0,20.0,96,0.04,,---,0.46,VWS V14.01,2013-02-25 20:57:00,
2013-02-25 16:02:00,47.2,46.1,30.01,NE,41,13.0,16.0,96,0.05,,---,0.47,VWS V14.01,2013-02-25 21:02:00,
2013-02-25 16:12:00,47.3,46.5,30.02,NE,40,7.0,12.0,97,0.05,,---,0.48,VWS V14.01,2013-02-25 21:12:00,
2013-02-25 16:17:00,47.3,46.2,30.02,NE,46,9.0,13.0,96,0.05,,---,0.48,VWS V14.01,2013-02-25 21:17:00,
2013-02-25 16:22:00,47.2,46.1,30.02,NE,42,12.0,17.0,96,0.06,,---,0.49,VWS V14.01,2013-02-25 21:22:00,
2013-02-25 16:27:00,47.2,46.1,30.02,ENE,58,10.0,16.0,96,0.06,,---,0.49,VWS V14.01,2013-02-25 21:27:00,
2013-02-25 16:32:00,47.2,46.1,30.02,NE,46,8.0,15.0,96,0.05,,---,0.49,VWS V14.01,2013-02-25 21:32:00,
2013-02-25 16:37:00,47.2,46.4,30.02,ENE,68,9.0,12.0,97,0.06,,---,0.50,VWS V14.01,2013-02-25 21:37:00,
2013-02-25 16:47:00,47.2,46.4,30.02,NE,51,7.0,15.0,97,0.06,,---,0.51,VWS V14.01,2013-02-25 21:47:00,
2013-02-25 16:52:00,47.2,46.4,30.02,NE,53,9.0,14.0,97,0.06,,---,0.51,VWS V14.01,2013-02-25 21:52:00,
2013-02-25 16:57:00,47.2,46.4,30.02,NE,34,7.0,12.0,97,0.06,,---,0.52,VWS V14.01,2013-02-25 21:57:00,
2013-02-25 17:02:00,47.2,46.4,30.02,ENE,60,10.0,14.0,97,0.06,,---,0.52,VWS V14.01,2013-02-25 22:02:00,
2013-02-25 17:12:00,47.1,46.3,30.02,NE,51,9.0,12.0,97,0.06,,---,0.53,VWS V14.01,2013-02-25 22:12:00,
2013-02-25 17:17:00,47.0,46.2,30.03,NE,41,7.0,11.0,97,0.06,,---,0.54,VWS V14.01,2013-02-25 22:17:00,
2013-02-25 17:22:00,47.1,46.3,30.02,NE,41,7.0,13.0,97,0.06,,---,0.54,VWS V14.01,2013-02-25 22:22:00,
2013-02-25 17:27:00,47.1,46.3,30.02,ENE,70,4.0,11.0,97,0.05,,---,0.54,VWS V14.01,2013-02-25 22:27:00,
2013-02-25 17:32:00,47.1,46.3,30.01,ENE,75,9.0,12.0,97,0.06,,---,0.55,VWS V14.01,2013-02-25 22:32:00,
2013-02-25 17:37:00,47.0,46.2,30.01,East,81,5.0,14.0,97,0.06,,---,0.55,VWS V14.01,2013-02-25 22:37:00,
2013-02-25 17:42:00,47.1,46.3,30.01,ENE,71,16.0,17.0,97,0.06,,---,0.56,VWS V14.01,2013-02-25 22:42:00,
2013-02-25 17:47:00,47.1,46.3,30.00,ENE,76,8.0,16.0,97,0.06,,---,0.56,VWS V14.01,2013-02-25 22:47:00,
2013-02-25 17:52:00,47.2,46.4,30.00,NE,44,11.0,14.0,97,0.06,,---,0.57,VWS V14.01,2013-02-25 22:52:00,
2013-02-25 17:57:00,47.4,46.6,29.99,East,91,12.0,17.0,97,0.07,,---,0.58,VWS V14.01,2013-02-25 22:57:00,
2013-02-25 18:03:00,47.6,46.8,29.97,ESE,102,13.0,17.0,97,0.06,,---,0.58,VWS V14.01,2013-02-25 23:03:00,
2013-02-25 18:12:00,48.3,47.8,29.95,East,101,16.0,26.0,98,0.06,,---,0.59,VWS V14.01,2013-02-25 23:12:00,
2013-02-25 18:17:00,48.6,48.1,29.95,East,101,13.0,24.0,98,0.07,,---,0.60,VWS V14.01,2013-02-25 23:17:00,
2013-02-25 18:22:00,49.1,48.6,29.96,East,89,11.0,16.0,98,0.06,,---,0.60,VWS V14.01,2013-02-25 23:22:00,
2013-02-25 18:32:00,49.8,49.0,29.95,East,86,17.0,21.0,97,0.07,,---,0.61,VWS V14.01,2013-02-25 23:32:00,
2013-02-25 18:42:00,50.5,49.7,29.97,ENE,66,18.0,25.0,97,0.06,,---,0.61,VWS V14.01,2013-02-25 23:42:00,
2013-02-25 18:52:00,50.9,50.1,29.97,ENE,70,12.0,20.0,97,0.06,,---,0.62,VWS V14.01,2013-02-25 23:52:00,
2013-02-25 18:57:00,51.1,50.3,29.97,NE,50,14.0,16.0,97,0.05,,---,0.62,VWS V14.01,2013-02-25 23:57:00,
2013-02-25 19:02:00,51.2,50.4,29.96,ENE,67,14.0,18.0,97,0.04,,---,0.62,VWS V14.01,2013-02-26 00:02:00,
2013-02-25 19:07:00,51.3,50.5,29.96,ENE,75,17.0,19.0,97,0.04,,---,0.62,VWS V14.01,2013-02-26 00:07:00,
2013-02-25 19:17:00,51.7,50.9,29.97,ENE,73,11.0,20.0,97,0.04,,---,0.63,VWS V14.01,2013-02-26 00:17:00,
2013-02-25 19:22:00,51.7,50.9,29.97,NE,50,14.0,17.0,97,0.03,,---,0.63,VWS V14.01,2013-02-26 00:22:00,
2013-02-25 19:27:00,51.6,50.8,29.97,ENE,62,14.0,19.0,97,0.03,,---,0.63,VWS V14.01,2013-02-26 00:27:00,
2013-02-25 19:32:00,51.7,50.9,29.96,ENE,64,10.0,17.0,97,0.03,,---,0.63,VWS V14.01,2013-02-26 00:32:00,
2013-02-25 19:37:00,51.5,50.7,29.96,ENE,61,14.0,20.0,97,0.03,,---,0.64,VWS V14.01,2013-02-26 00:37:00,
2013-02-25 19:47:00,51.5,50.7,29.95,ENE,60,7.0,18.0,97,0.03,,---,0.64,VWS V14.01,2013-02-26 00:47:00,
2013-02-25 19:52:00,51.5,50.7,29.95,ENE,57,14.0,20.0,97,0.03,,---,0.64,VWS V14.01,2013-02-26 00:52:00,
2013-02-25 19:57:00,51.5,50.7,29.95,North,11,12.0,20.0,97,0.03,,---,0.65,VWS V14.01,2013-02-26 00:57:00,
2013-02-25 20:07:00,51.3,50.5,29.94,ENE,72,7.0,20.0,97,0.03,,---,0.65,VWS V14.01,2013-02-26 01:07:00,
2013-02-25 20:12:00,51.3,50.5,29.93,ENE,61,10.0,19.0,97,0.03,,---,0.65,VWS V14.01,2013-02-26 01:12:00,
2013-02-25 20:17:00,51.2,50.4,29.93,ENE,58,12.0,21.0,97,0.02,,---,0.65,VWS V14.01,2013-02-26 01:17:00,
2013-02-25 20:22:00,51.1,50.3,29.92,NE,39,14.0,20.0,97,0.02,,---,0.65,VWS V14.01,2013-02-26 01:22:00,
2013-02-25 20:27:00,50.8,49.7,29.94,NNE,18,10.0,19.0,96,0.02,,---,0.65,VWS V14.01,2013-02-26 01:27:00,
2013-02-25 20:32:00,50.3,49.5,29.97,NNW,328,10.0,17.0,97,0.02,,---,0.65,VWS V14.01,2013-02-26 01:32:00,
2013-02-25 20:37:00,49.1,47.7,29.98,NW,324,14.0,19.0,95,0.02,,---,0.65,VWS V14.01,2013-02-26 01:37:00,
2013-02-25 20:42:00,47.7,46.3,29.99,NW,324,14.0,20.0,95,0.01,,---,0.65,VWS V14.01,2013-02-26 01:42:00,
2013-02-25 20:47:00,46.9,45.8,29.99,NW,326,15.0,20.0,96,0.01,,---,0.65,VWS V14.01,2013-02-26 01:47:00,
2013-02-25 20:57:00,46.0,45.2,29.99,NNE,13,17.0,18.0,97,0.01,,---,0.65,VWS V14.01,2013-02-26 01:57:00,
2013-02-25 21:02:00,45.7,44.9,29.99,North,10,12.0,20.0,97,0.00,,---,0.65,VWS V14.01,2013-02-26 02:02:00,
2013-02-25 21:07:00,45.2,44.1,30.00,NNW,342,14.0,18.0,96,0.00,,---,0.65,VWS V14.01,2013-02-26 02:07:00,
2013-02-25 21:12:00,44.7,43.6,30.00,NNE,19,16.0,23.0,96,0.00,,---,0.65,VWS V14.01,2013-02-26 02:12:00,
2013-02-25 21:17:00,44.3,43.2,30.00,North,350,12.0,18.0,96,0.00,,---,0.65,VWS V14.01,2013-02-26 02:17:00,
2013-02-25 21:22:00,44.0,42.9,30.00,NNE,20,13.0,21.0,96,0.00,,---,0.65,VWS V14.01,2013-02-26 02:22:00,
2013-02-25 21:27:00,43.7,42.6,30.00,NNE,27,14.0,20.0,96,0.00,,---,0.65,VWS V14.01,2013-02-26 02:27:00,
2013-02-25 21:37:00,43.4,42.6,29.98,NNE,33,12.0,22.0,97,0.00,,---,0.65,VWS V14.01,2013-02-26 02:37:00,
2013-02-25 21:42:00,43.5,42.4,29.98,NNE,31,15.0,21.0,96,0.00,,---,0.65,VWS V14.01,2013-02-26 02:42:00,
2013-02-25 21:52:00,43.5,42.4,29.98,NE,41,14.0,22.0,96,0.00,,---,0.65,VWS V14.01,2013-02-26 02:52:00,
2013-02-25 21:57:00,43.5,42.4,29.98,NE,44,13.0,19.0,96,0.00,,---,0.65,VWS V14.01,2013-02-26 02:57:00,
2013-02-25 22:07:00,43.7,42.6,29.98,NE,51,17.0,20.0,96,0.00,,---,0.65,VWS V14.01,2013-02-26 03:07:00,
2013-02-25 22:12:00,43.7,42.6,29.97,ENE,59,13.0,24.0,96,0.01,,---,0.66,VWS V14.01,2013-02-26 03:12:00,
2013-02-25 22:17:00,43.8,42.7,29.98,NE,36,11.0,20.0,96,0.01,,---,0.66,VWS V14.01,2013-02-26 03:17:00,
2013-02-25 22:22:00,43.7,42.6,29.98,ENE,76,13.0,18.0,96,0.01,,---,0.66,VWS V14.01,2013-02-26 03:22:00,
2013-02-25 22:32:00,43.9,42.8,29.98,NE,37,11.0,18.0,96,0.01,,---,0.66,VWS V14.01,2013-02-26 03:32:00,
2013-02-25 22:37:00,43.9,42.8,29.97,NE,46,10.0,22.0,96,0.01,,---,0.66,VWS V14.01,2013-02-26 03:37:00,
2013-02-25 22:42:00,44.1,43.0,29.96,NNE,33,12.0,17.0,96,0.01,,---,0.66,VWS V14.01,2013-02-26 03:42:00,
2013-02-25 22:47:00,44.2,43.1,29.96,ENE,68,11.0,19.0,96,0.01,,---,0.66,VWS V14.01,2013-02-26 03:47:00,
2013-02-25 22:52:00,44.3,43.2,29.95,NE,50,12.0,18.0,96,0.01,,---,0.66,VWS V14.01,2013-02-26 03:52:00,
2013-02-25 23:02:00,44.6,43.5,29.93,ENE,69,17.0,18.0,96,0.01,,---,0.66,VWS V14.01,2013-02-26 04:02:00,
2013-02-25 23:12:00,44.9,43.8,29.93,NE,49,15.0,19.0,96,0.01,,---,0.66,VWS V14.01,2013-02-26 04:12:00,
2013-02-25 23:17:00,45.0,43.7,29.93,ENE,57,9.0,18.0,95,0.00,,---,0.66,VWS V14.01,2013-02-26 04:17:00,
2013-02-25 23:22:00,45.1,43.8,29.93,ENE,75,11.0,17.0,95,0.00,,---,0.66,VWS V14.01,2013-02-26 04:22:00,
2013-02-25 23:27:00,45.3,44.0,29.93,ENE,61,16.0,20.0,95,0.00,,---,0.66,VWS V14.01,2013-02-26 04:27:00,
2013-02-25 23:32:00,45.5,44.2,29.94,ENE,63,17.0,18.0,95,0.00,,---,0.66,VWS V14.01,2013-02-26 04:32:00,
2013-02-25 23:37:00,45.6,44.2,29.94,ENE,60,12.0,18.0,95,0.00,,---,0.66,VWS V14.01,2013-02-26 04:37:00,
2013-02-25 23:42:00,45.7,44.3,29.93,ENE,61,15.0,19.0,95,0.00,,---,0.66,VWS V14.01,2013-02-26 04:42:00,
2013-02-25 23:47:00,45.7,44.3,29.94,NE,50,10.0,16.0,95,0.00,,---,0.66,VWS V14.01,2013-02-26 04:47:00,
2013-02-25 23:52:00,45.7,44.3,29.94,NE,43,12.0,18.0,95,0.00,,---,0.66,VWS V14.01,2013-02-26 04:52:00,
2013-02-25 23:57:00,45.7,44.3,29.94,NNE,32,9.0,17.0,95,0.00,,---,0.66,VWS V14.01,2013-02-26 04:57:00,